Terminal Aerodrome Forecast
Issued by NWS Northern Indiana

Home | Current Version | Previous Version | Text Only | Print | Product List | Glossary On
Versions: 1 2 3 4 5 6 7 8 9 10 11 12 13 14
227
FTUS43 KIWX 281729
TAFFWA
TAF
KFWA 281729Z 2818/0118 19013KT 5SM -DZ BR OVC008
     FM010200 20016KT 5SM SHRA VCTS OVC015CB
      TEMPO 0102/0106 2SM TSRAGR OVC008CB
     FM010600 21017KT 5SM SHRA VCTS OVC040CB WS020/22045KT
      TEMPO 0106/0108 22020G40KT 2SM +TSRA OVC015CB
     FM011000 23013KT 4SM -SHRA OVC090
     FM011600 25018KT 6SM -SHRA BKN045=

USA.gov is the U.S. government's official web portal to all federal, state and local government web resources and services.